sensor_id;sensor_type;location;lat;lon;timestamp;P1;durP1;ratioP1;P2;durP2;ratioP2
66970;SDS011;53901;51.466;-2.588;2023-06-24T00:00:26;16.50;;;4.50;;
66970;SDS011;53901;51.466;-2.588;2023-06-24T00:02:51;6.20;;;3.50;;
66970;SDS011;53901;51.466;-2.588;2023-06-24T00:05:18;7.72;;;3.60;;
66970;SDS011;53901;51.466;-2.588;2023-06-24T00:07:44;6.32;;;3.78;;
66970;SDS011;53901;51.466;-2.588;2023-06-24T00:10:10;8.23;;;3.47;;
66970;SDS011;53901;51.466;-2.588;2023-06-24T00:12:39;7.85;;;4.53;;
66970;SDS011;53901;51.466;-2.588;2023-06-24T00:15:06;5.55;;;3.25;;
66970;SDS011;53901;51.466;-2.588;2023-06-24T00:17:33;6.53;;;3.75;;
66970;SDS011;53901;51.466;-2.588;2023-06-24T00:19:58;9.25;;;3.95;;
66970;SDS011;53901;51.466;-2.588;2023-06-24T00:22:24;6.50;;;4.00;;
66970;SDS011;53901;51.466;-2.588;2023-06-24T00:24:49;6.85;;;3.53;;
66970;SDS011;53901;51.466;-2.588;2023-06-24T00:27:15;10.40;;;3.22;;
66970;SDS011;53901;51.466;-2.588;2023-06-24T00:29:40;6.93;;;3.50;;
66970;SDS011;53901;51.466;-2.588;2023-06-24T00:32:06;9.15;;;3.28;;
66970;SDS011;53901;51.466;-2.588;2023-06-24T00:34:32;5.90;;;3.40;;
66970;SDS011;53901;51.466;-2.588;2023-06-24T00:36:57;5.82;;;3.20;;
66970;SDS011;53901;51.466;-2.588;2023-06-24T00:39:22;9.27;;;3.85;;
66970;SDS011;53901;51.466;-2.588;2023-06-24T00:41:48;6.90;;;3.15;;
66970;SDS011;53901;51.466;-2.588;2023-06-24T00:44:14;7.40;;;3.72;;
66970;SDS011;53901;51.466;-2.588;2023-06-24T00:46:39;8.43;;;3.40;;
66970;SDS011;53901;51.466;-2.588;2023-06-24T00:49:05;6.15;;;3.47;;
66970;SDS011;53901;51.466;-2.588;2023-06-24T00:51:30;8.65;;;3.53;;
66970;SDS011;53901;51.466;-2.588;2023-06-24T00:53:59;10.80;;;4.05;;
66970;SDS011;53901;51.466;-2.588;2023-06-24T00:56:26;7.55;;;4.20;;
66970;SDS011;53901;51.466;-2.588;2023-06-24T00:58:54;8.20;;;4.47;;
66970;SDS011;53901;51.466;-2.588;2023-06-24T01:01:19;6.85;;;3.78;;
66970;SDS011;53901;51.466;-2.588;2023-06-24T01:03:45;6.60;;;4.03;;
66970;SDS011;53901;51.466;-2.588;2023-06-24T01:06:11;7.03;;;3.60;;
66970;SDS011;53901;51.466;-2.588;2023-06-24T01:08:36;8.48;;;3.83;;
66970;SDS011;53901;51.466;-2.588;2023-06-24T01:11:02;8.35;;;4.18;;
66970;SDS011;53901;51.466;-2.588;2023-06-24T01:13:28;7.55;;;4.15;;
66970;SDS011;53901;51.466;-2.588;2023-06-24T01:15:53;6.75;;;4.50;;
66970;SDS011;53901;51.466;-2.588;2023-06-24T01:32:31;8.90;;;3.88;;
66970;SDS011;53901;51.466;-2.588;2023-06-24T01:35:04;7.50;;;3.92;;
66970;SDS011;53901;51.466;-2.588;2023-06-24T01:37:35;8.83;;;4.83;;
66970;SDS011;53901;51.466;-2.588;2023-06-24T01:42:37;7.40;;;3.70;;
66970;SDS011;53901;51.466;-2.588;2023-06-24T01:45:05;7.50;;;3.75;;
66970;SDS011;53901;51.466;-2.588;2023-06-24T01:47:32;7.43;;;3.60;;
66970;SDS011;53901;51.466;-2.588;2023-06-24T01:49:57;7.75;;;3.45;;
66970;SDS011;53901;51.466;-2.588;2023-06-24T01:52:24;6.50;;;3.75;;
66970;SDS011;53901;51.466;-2.588;2023-06-24T01:54:51;6.75;;;3.75;;
66970;SDS011;53901;51.466;-2.588;2023-06-24T01:57:17;6.00;;;3.75;;
66970;SDS011;53901;51.466;-2.588;2023-06-24T01:59:43;11.00;;;4.00;;
66970;SDS011;53901;51.466;-2.588;2023-06-24T02:02:10;8.50;;;4.00;;
66970;SDS011;53901;51.466;-2.588;2023-06-24T02:04:37;10.13;;;3.95;;
66970;SDS011;53901;51.466;-2.588;2023-06-24T02:07:03;6.68;;;3.88;;
66970;SDS011;53901;51.466;-2.588;2023-06-24T02:09:29;6.25;;;3.63;;
66970;SDS011;53901;51.466;-2.588;2023-06-24T02:11:57;7.78;;;4.13;;
66970;SDS011;53901;51.466;-2.588;2023-06-24T02:14:23;7.15;;;4.10;;
66970;SDS011;53901;51.466;-2.588;2023-06-24T02:16:51;7.80;;;4.43;;
66970;SDS011;53901;51.466;-2.588;2023-06-24T02:19:21;7.65;;;4.95;;
66970;SDS011;53901;51.466;-2.588;2023-06-24T02:21:47;9.70;;;5.40;;
66970;SDS011;53901;51.466;-2.588;2023-06-24T02:24:13;11.18;;;5.47;;
66970;SDS011;53901;51.466;-2.588;2023-06-24T02:26:39;8.75;;;4.80;;
66970;SDS011;53901;51.466;-2.588;2023-06-24T02:29:06;6.93;;;4.70;;
66970;SDS011;53901;51.466;-2.588;2023-06-24T02:31:34;6.70;;;3.90;;
66970;SDS011;53901;51.466;-2.588;2023-06-24T02:33:59;8.68;;;3.97;;
66970;SDS011;53901;51.466;-2.588;2023-06-24T02:36:25;8.60;;;4.00;;
66970;SDS011;53901;51.466;-2.588;2023-06-24T02:38:50;5.88;;;3.85;;
66970;SDS011;53901;51.466;-2.588;2023-06-24T02:41:15;9.63;;;4.32;;
66970;SDS011;53901;51.466;-2.588;2023-06-24T02:43:41;6.03;;;3.47;;
66970;SDS011;53901;51.466;-2.588;2023-06-24T02:46:06;6.05;;;3.72;;
66970;SDS011;53901;51.466;-2.588;2023-06-24T02:48:33;8.43;;;4.68;;
66970;SDS011;53901;51.466;-2.588;2023-06-24T02:50:59;8.10;;;4.25;;
66970;SDS011;53901;51.466;-2.588;2023-06-24T02:53:26;7.63;;;4.20;;
66970;SDS011;53901;51.466;-2.588;2023-06-24T02:55:52;8.70;;;4.10;;
66970;SDS011;53901;51.466;-2.588;2023-06-24T02:58:20;8.63;;;4.25;;
66970;SDS011;53901;51.466;-2.588;2023-06-24T03:00:45;7.97;;;5.00;;
66970;SDS011;53901;51.466;-2.588;2023-06-24T03:03:11;6.75;;;4.35;;
66970;SDS011;53901;51.466;-2.588;2023-06-24T03:05:36;7.28;;;4.38;;
66970;SDS011;53901;51.466;-2.588;2023-06-24T03:08:02;7.50;;;4.93;;
66970;SDS011;53901;51.466;-2.588;2023-06-24T03:10:30;7.43;;;4.80;;
66970;SDS011;53901;51.466;-2.588;2023-06-24T03:12:56;9.00;;;4.20;;
66970;SDS011;53901;51.466;-2.588;2023-06-24T03:15:21;9.45;;;4.38;;
66970;SDS011;53901;51.466;-2.588;2023-06-24T03:17:47;7.65;;;4.13;;
66970;SDS011;53901;51.466;-2.588;2023-06-24T03:20:13;6.35;;;4.10;;
66970;SDS011;53901;51.466;-2.588;2023-06-24T03:22:38;7.18;;;3.60;;
66970;SDS011;53901;51.466;-2.588;2023-06-24T03:25:03;6.22;;;3.88;;
66970;SDS011;53901;51.466;-2.588;2023-06-24T03:27:29;7.20;;;3.97;;
66970;SDS011;53901;51.466;-2.588;2023-06-24T03:29:56;12.15;;;4.30;;
66970;SDS011;53901;51.466;-2.588;2023-06-24T03:32:21;7.00;;;4.15;;
66970;SDS011;53901;51.466;-2.588;2023-06-24T03:34:47;7.63;;;4.10;;
66970;SDS011;53901;51.466;-2.588;2023-06-24T03:37:12;8.82;;;4.60;;
66970;SDS011;53901;51.466;-2.588;2023-06-24T03:39:38;12.23;;;4.50;;
66970;SDS011;53901;51.466;-2.588;2023-06-24T03:42:03;9.70;;;5.15;;
66970;SDS011;53901;51.466;-2.588;2023-06-24T03:44:29;6.18;;;4.40;;
66970;SDS011;53901;51.466;-2.588;2023-06-24T03:46:54;8.32;;;4.30;;
66970;SDS011;53901;51.466;-2.588;2023-06-24T03:49:19;7.03;;;4.65;;
66970;SDS011;53901;51.466;-2.588;2023-06-24T03:51:45;9.57;;;5.00;;
66970;SDS011;53901;51.466;-2.588;2023-06-24T03:54:10;9.07;;;4.20;;
66970;SDS011;53901;51.466;-2.588;2023-06-24T03:56:36;8.05;;;4.10;;
66970;SDS011;53901;51.466;-2.588;2023-06-24T03:59:01;7.68;;;4.43;;
66970;SDS011;53901;51.466;-2.588;2023-06-24T04:01:27;9.75;;;4.75;;
66970;SDS011;53901;51.466;-2.588;2023-06-24T04:03:56;8.95;;;4.65;;
66970;SDS011;53901;51.466;-2.588;2023-06-24T04:06:22;10.30;;;5.05;;
66970;SDS011;53901;51.466;-2.588;2023-06-24T04:08:47;8.27;;;4.57;;
66970;SDS011;53901;51.466;-2.588;2023-06-24T04:11:13;7.53;;;4.75;;
66970;SDS011;53901;51.466;-2.588;2023-06-24T04:13:39;7.25;;;4.20;;
66970;SDS011;53901;51.466;-2.588;2023-06-24T04:16:04;8.10;;;4.28;;
66970;SDS011;53901;51.466;-2.588;2023-06-24T04:18:30;6.25;;;3.88;;
66970;SDS011;53901;51.466;-2.588;2023-06-24T04:20:55;7.97;;;4.40;;
66970;SDS011;53901;51.466;-2.588;2023-06-24T04:23:22;6.72;;;4.10;;
66970;SDS011;53901;51.466;-2.588;2023-06-24T04:25:47;13.60;;;4.50;;
66970;SDS011;53901;51.466;-2.588;2023-06-24T04:28:13;7.78;;;4.47;;
66970;SDS011;53901;51.466;-2.588;2023-06-24T04:30:38;6.95;;;4.40;;
66970;SDS011;53901;51.466;-2.588;2023-06-24T04:33:04;9.82;;;4.78;;
66970;SDS011;53901;51.466;-2.588;2023-06-24T04:35:30;8.48;;;4.38;;
66970;SDS011;53901;51.466;-2.588;2023-06-24T04:37:55;7.85;;;4.50;;
66970;SDS011;53901;51.466;-2.588;2023-06-24T04:40:21;8.05;;;4.20;;
66970;SDS011;53901;51.466;-2.588;2023-06-24T04:42:46;10.05;;;4.40;;
66970;SDS011;53901;51.466;-2.588;2023-06-24T04:45:12;8.40;;;4.78;;
66970;SDS011;53901;51.466;-2.588;2023-06-24T04:47:37;7.35;;;4.22;;
66970;SDS011;53901;51.466;-2.588;2023-06-24T04:50:03;7.28;;;4.20;;
66970;SDS011;53901;51.466;-2.588;2023-06-24T04:52:29;8.13;;;4.47;;
66970;SDS011;53901;51.466;-2.588;2023-06-24T04:54:54;11.77;;;4.70;;
66970;SDS011;53901;51.466;-2.588;2023-06-24T04:57:27;6.82;;;4.07;;
66970;SDS011;53901;51.466;-2.588;2023-06-24T04:59:53;9.82;;;4.45;;
66970;SDS011;53901;51.466;-2.588;2023-06-24T05:02:18;9.73;;;4.85;;
66970;SDS011;53901;51.466;-2.588;2023-06-24T05:04:44;10.45;;;4.68;;
66970;SDS011;53901;51.466;-2.588;2023-06-24T05:07:09;6.45;;;4.20;;
66970;SDS011;53901;51.466;-2.588;2023-06-24T05:09:35;8.15;;;4.53;;
66970;SDS011;53901;51.466;-2.588;2023-06-24T05:12:03;12.55;;;4.55;;
66970;SDS011;53901;51.466;-2.588;2023-06-24T05:14:29;8.13;;;4.20;;
66970;SDS011;53901;51.466;-2.588;2023-06-24T05:16:54;9.75;;;4.40;;
66970;SDS011;53901;51.466;-2.588;2023-06-24T05:19:20;7.55;;;4.10;;
66970;SDS011;53901;51.466;-2.588;2023-06-24T05:21:45;9.45;;;4.30;;
66970;SDS011;53901;51.466;-2.588;2023-06-24T05:24:10;9.65;;;4.45;;
66970;SDS011;53901;51.466;-2.588;2023-06-24T05:26:36;7.35;;;4.35;;
66970;SDS011;53901;51.466;-2.588;2023-06-24T05:29:01;7.70;;;4.38;;
66970;SDS011;53901;51.466;-2.588;2023-06-24T05:31:27;10.85;;;4.57;;
66970;SDS011;53901;51.466;-2.588;2023-06-24T05:33:52;10.10;;;4.50;;
66970;SDS011;53901;51.466;-2.588;2023-06-24T05:36:17;9.65;;;5.07;;
66970;SDS011;53901;51.466;-2.588;2023-06-24T05:38:43;8.80;;;4.75;;
66970;SDS011;53901;51.466;-2.588;2023-06-24T05:41:08;9.55;;;4.60;;
66970;SDS011;53901;51.466;-2.588;2023-06-24T05:43:33;8.45;;;4.30;;
66970;SDS011;53901;51.466;-2.588;2023-06-24T05:45:59;9.73;;;4.20;;
66970;SDS011;53901;51.466;-2.588;2023-06-24T05:48:26;8.63;;;4.57;;
66970;SDS011;53901;51.466;-2.588;2023-06-24T05:50:52;11.00;;;4.40;;
66970;SDS011;53901;51.466;-2.588;2023-06-24T05:53:17;8.18;;;4.32;;
66970;SDS011;53901;51.466;-2.588;2023-06-24T05:55:43;10.20;;;4.45;;
66970;SDS011;53901;51.466;-2.588;2023-06-24T05:58:08;7.35;;;4.57;;
66970;SDS011;53901;51.466;-2.588;2023-06-24T06:00:33;7.57;;;4.13;;
66970;SDS011;53901;51.466;-2.588;2023-06-24T06:02:59;7.10;;;4.10;;
66970;SDS011;53901;51.466;-2.588;2023-06-24T06:05:24;8.50;;;4.10;;
66970;SDS011;53901;51.466;-2.588;2023-06-24T06:07:49;6.57;;;4.07;;
66970;SDS011;53901;51.466;-2.588;2023-06-24T06:10:15;7.72;;;4.47;;
66970;SDS011;53901;51.466;-2.588;2023-06-24T06:12:42;7.90;;;4.30;;
66970;SDS011;53901;51.466;-2.588;2023-06-24T06:15:08;8.52;;;4.20;;
66970;SDS011;53901;51.466;-2.588;2023-06-24T06:17:34;6.80;;;4.00;;
66970;SDS011;53901;51.466;-2.588;2023-06-24T06:19:59;13.57;;;4.10;;
66970;SDS011;53901;51.466;-2.588;2023-06-24T06:22:25;8.88;;;4.03;;
66970;SDS011;53901;51.466;-2.588;2023-06-24T06:24:50;5.93;;;4.15;;
66970;SDS011;53901;51.466;-2.588;2023-06-24T06:27:15;6.57;;;4.00;;
66970;SDS011;53901;51.466;-2.588;2023-06-24T06:29:41;8.23;;;4.00;;
66970;SDS011;53901;51.466;-2.588;2023-06-24T06:32:06;9.15;;;4.20;;
66970;SDS011;53901;51.466;-2.588;2023-06-24T06:34:32;6.60;;;3.83;;
66970;SDS011;53901;51.466;-2.588;2023-06-24T06:36:58;6.93;;;3.60;;
66970;SDS011;53901;51.466;-2.588;2023-06-24T06:39:23;6.85;;;3.80;;
66970;SDS011;53901;51.466;-2.588;2023-06-24T06:41:48;11.48;;;4.05;;
66970;SDS011;53901;51.466;-2.588;2023-06-24T06:44:14;7.03;;;3.70;;
66970;SDS011;53901;51.466;-2.588;2023-06-24T06:46:39;8.63;;;3.63;;
66970;SDS011;53901;51.466;-2.588;2023-06-24T06:49:04;7.60;;;4.03;;
66970;SDS011;53901;51.466;-2.588;2023-06-24T06:51:30;7.45;;;3.67;;
66970;SDS011;53901;51.466;-2.588;2023-06-24T06:53:55;7.07;;;3.50;;
66970;SDS011;53901;51.466;-2.588;2023-06-24T06:56:24;8.15;;;3.70;;
66970;SDS011;53901;51.466;-2.588;2023-06-24T06:58:50;7.85;;;3.30;;
66970;SDS011;53901;51.466;-2.588;2023-06-24T07:01:17;6.78;;;3.50;;
66970;SDS011;53901;51.466;-2.588;2023-06-24T07:03:43;6.20;;;3.45;;
66970;SDS011;53901;51.466;-2.588;2023-06-24T07:06:08;7.75;;;3.53;;
66970;SDS011;53901;51.466;-2.588;2023-06-24T07:08:34;9.57;;;3.63;;
66970;SDS011;53901;51.466;-2.588;2023-06-24T07:11:00;7.85;;;3.72;;
66970;SDS011;53901;51.466;-2.588;2023-06-24T07:13:26;6.22;;;3.38;;
66970;SDS011;53901;51.466;-2.588;2023-06-24T07:15:52;5.75;;;3.30;;
66970;SDS011;53901;51.466;-2.588;2023-06-24T07:18:17;4.78;;;3.00;;
66970;SDS011;53901;51.466;-2.588;2023-06-24T07:20:42;8.40;;;3.92;;
66970;SDS011;53901;51.466;-2.588;2023-06-24T07:23:08;7.18;;;3.60;;
66970;SDS011;53901;51.466;-2.588;2023-06-24T07:25:35;4.93;;;3.17;;
66970;SDS011;53901;51.466;-2.588;2023-06-24T07:28:00;7.75;;;3.20;;
66970;SDS011;53901;51.466;-2.588;2023-06-24T07:30:28;5.20;;;3.10;;
66970;SDS011;53901;51.466;-2.588;2023-06-24T07:32:54;7.38;;;3.30;;
66970;SDS011;53901;51.466;-2.588;2023-06-24T07:35:19;6.57;;;3.05;;
66970;SDS011;53901;51.466;-2.588;2023-06-24T07:37:45;5.28;;;2.72;;
66970;SDS011;53901;51.466;-2.588;2023-06-24T07:40:10;8.13;;;2.90;;
66970;SDS011;53901;51.466;-2.588;2023-06-24T07:42:36;7.03;;;3.22;;
66970;SDS011;53901;51.466;-2.588;2023-06-24T07:45:02;5.65;;;2.90;;
66970;SDS011;53901;51.466;-2.588;2023-06-24T07:47:27;6.60;;;3.15;;
66970;SDS011;53901;51.466;-2.588;2023-06-24T07:49:53;6.60;;;3.38;;
66970;SDS011;53901;51.466;-2.588;2023-06-24T07:52:18;6.35;;;2.88;;
66970;SDS011;53901;51.466;-2.588;2023-06-24T07:54:43;7.80;;;3.80;;
66970;SDS011;53901;51.466;-2.588;2023-06-24T07:57:09;5.07;;;3.20;;
66970;SDS011;53901;51.466;-2.588;2023-06-24T07:59:34;7.05;;;3.28;;
66970;SDS011;53901;51.466;-2.588;2023-06-24T08:02:00;4.53;;;3.00;;
66970;SDS011;53901;51.466;-2.588;2023-06-24T08:04:25;6.93;;;3.10;;
66970;SDS011;53901;51.466;-2.588;2023-06-24T08:06:54;6.13;;;3.00;;
66970;SDS011;53901;51.466;-2.588;2023-06-24T08:09:19;6.53;;;3.58;;
66970;SDS011;53901;51.466;-2.588;2023-06-24T08:11:45;6.38;;;3.20;;
66970;SDS011;53901;51.466;-2.588;2023-06-24T08:14:10;5.63;;;3.00;;
66970;SDS011;53901;51.466;-2.588;2023-06-24T08:16:35;5.10;;;3.40;;
66970;SDS011;53901;51.466;-2.588;2023-06-24T08:19:01;6.68;;;3.05;;
66970;SDS011;53901;51.466;-2.588;2023-06-24T08:21:26;6.13;;;2.92;;
66970;SDS011;53901;51.466;-2.588;2023-06-24T08:23:52;3.95;;;2.92;;
66970;SDS011;53901;51.466;-2.588;2023-06-24T08:26:19;4.35;;;2.92;;
66970;SDS011;53901;51.466;-2.588;2023-06-24T08:28:46;7.38;;;3.08;;
66970;SDS011;53901;51.466;-2.588;2023-06-24T08:31:11;7.25;;;3.10;;
66970;SDS011;53901;51.466;-2.588;2023-06-24T08:33:37;7.25;;;3.03;;
66970;SDS011;53901;51.466;-2.588;2023-06-24T08:36:02;4.72;;;3.00;;
66970;SDS011;53901;51.466;-2.588;2023-06-24T08:38:28;14.35;;;3.53;;
66970;SDS011;53901;51.466;-2.588;2023-06-24T08:40:53;8.38;;;3.40;;
66970;SDS011;53901;51.466;-2.588;2023-06-24T08:43:19;9.40;;;3.13;;
66970;SDS011;53901;51.466;-2.588;2023-06-24T08:45:44;6.20;;;2.97;;
66970;SDS011;53901;51.466;-2.588;2023-06-24T08:48:10;5.43;;;3.00;;
66970;SDS011;53901;51.466;-2.588;2023-06-24T08:50:36;4.38;;;2.70;;
66970;SDS011;53901;51.466;-2.588;2023-06-24T08:53:07;6.60;;;3.22;;
66970;SDS011;53901;51.466;-2.588;2023-06-24T08:55:39;6.80;;;3.28;;
66970;SDS011;53901;51.466;-2.588;2023-06-24T08:58:06;5.22;;;3.13;;
66970;SDS011;53901;51.466;-2.588;2023-06-24T09:00:32;7.15;;;3.75;;
66970;SDS011;53901;51.466;-2.588;2023-06-24T09:02:57;4.28;;;2.70;;
66970;SDS011;53901;51.466;-2.588;2023-06-24T09:05:24;7.20;;;2.97;;
66970;SDS011;53901;51.466;-2.588;2023-06-24T09:07:49;4.60;;;3.00;;
66970;SDS011;53901;51.466;-2.588;2023-06-24T09:10:36;6.32;;;2.80;;
66970;SDS011;53901;51.466;-2.588;2023-06-24T09:13:01;5.30;;;2.55;;
66970;SDS011;53901;51.466;-2.588;2023-06-24T09:15:31;5.00;;;2.92;;
66970;SDS011;53901;51.466;-2.588;2023-06-24T09:17:57;6.22;;;2.80;;
66970;SDS011;53901;51.466;-2.588;2023-06-24T09:20:23;4.07;;;2.65;;
66970;SDS011;53901;51.466;-2.588;2023-06-24T09:22:48;5.15;;;2.90;;
66970;SDS011;53901;51.466;-2.588;2023-06-24T09:25:18;5.85;;;2.90;;
66970;SDS011;53901;51.466;-2.588;2023-06-24T09:27:50;7.47;;;3.20;;
66970;SDS011;53901;51.466;-2.588;2023-06-24T09:30:20;4.97;;;3.03;;
66970;SDS011;53901;51.466;-2.588;2023-06-24T09:32:47;6.35;;;2.88;;
66970;SDS011;53901;51.466;-2.588;2023-06-24T09:35:13;6.45;;;3.05;;
66970;SDS011;53901;51.466;-2.588;2023-06-24T09:37:39;10.38;;;3.42;;
66970;SDS011;53901;51.466;-2.588;2023-06-24T09:40:05;6.57;;;2.92;;
66970;SDS011;53901;51.466;-2.588;2023-06-24T09:42:33;5.63;;;3.45;;
66970;SDS011;53901;51.466;-2.588;2023-06-24T09:44:59;8.07;;;2.83;;
66970;SDS011;53901;51.466;-2.588;2023-06-24T09:47:29;6.97;;;4.00;;
66970;SDS011;53901;51.466;-2.588;2023-06-24T09:49:55;4.45;;;2.78;;
66970;SDS011;53901;51.466;-2.588;2023-06-24T09:52:22;5.05;;;2.70;;
66970;SDS011;53901;51.466;-2.588;2023-06-24T09:54:53;6.65;;;3.10;;
66970;SDS011;53901;51.466;-2.588;2023-06-24T09:57:25;6.38;;;3.50;;
66970;SDS011;53901;51.466;-2.588;2023-06-24T09:59:54;6.70;;;3.03;;
66970;SDS011;53901;51.466;-2.588;2023-06-24T10:02:19;5.72;;;2.75;;
66970;SDS011;53901;51.466;-2.588;2023-06-24T10:04:45;7.10;;;2.90;;
66970;SDS011;53901;51.466;-2.588;2023-06-24T10:07:11;4.60;;;2.75;;
66970;SDS011;53901;51.466;-2.588;2023-06-24T10:09:39;7.72;;;2.90;;
66970;SDS011;53901;51.466;-2.588;2023-06-24T10:12:05;6.45;;;2.90;;
66970;SDS011;53901;51.466;-2.588;2023-06-24T10:14:30;7.88;;;3.10;;
66970;SDS011;53901;51.466;-2.588;2023-06-24T10:17:02;6.60;;;3.05;;
66970;SDS011;53901;51.466;-2.588;2023-06-24T10:19:29;5.45;;;2.65;;
66970;SDS011;53901;51.466;-2.588;2023-06-24T10:21:57;4.95;;;2.45;;
66970;SDS011;53901;51.466;-2.588;2023-06-24T10:24:36;6.63;;;2.60;;
66970;SDS011;53901;51.466;-2.588;2023-06-24T10:27:08;5.20;;;2.30;;
66970;SDS011;53901;51.466;-2.588;2023-06-24T10:29:35;4.35;;;2.58;;
66970;SDS011;53901;51.466;-2.588;2023-06-24T10:32:04;4.35;;;2.15;;
66970;SDS011;53901;51.466;-2.588;2023-06-24T10:34:34;3.33;;;2.28;;
66970;SDS011;53901;51.466;-2.588;2023-06-24T10:40:02;4.68;;;2.35;;
66970;SDS011;53901;51.466;-2.588;2023-06-24T10:45:02;4.55;;;2.65;;
66970;SDS011;53901;51.466;-2.588;2023-06-24T10:47:33;5.80;;;2.40;;
66970;SDS011;53901;51.466;-2.588;2023-06-24T10:49:58;5.78;;;2.50;;
66970;SDS011;53901;51.466;-2.588;2023-06-24T10:52:24;3.55;;;2.65;;
66970;SDS011;53901;51.466;-2.588;2023-06-24T10:54:50;6.60;;;3.15;;
66970;SDS011;53901;51.466;-2.588;2023-06-24T10:57:20;7.35;;;3.15;;
66970;SDS011;53901;51.466;-2.588;2023-06-24T10:59:50;5.95;;;2.85;;
66970;SDS011;53901;51.466;-2.588;2023-06-24T11:02:16;4.38;;;2.38;;
66970;SDS011;53901;51.466;-2.588;2023-06-24T11:04:55;3.28;;;2.13;;
66970;SDS011;53901;51.466;-2.588;2023-06-24T11:07:26;5.05;;;2.50;;
66970;SDS011;53901;51.466;-2.588;2023-06-24T11:12:32;4.78;;;3.03;;
66970;SDS011;53901;51.466;-2.588;2023-06-24T11:15:00;5.22;;;2.80;;
66970;SDS011;53901;51.466;-2.588;2023-06-24T11:17:30;5.43;;;3.03;;
66970;SDS011;53901;51.466;-2.588;2023-06-24T11:19:56;5.22;;;2.92;;
66970;SDS011;53901;51.466;-2.588;2023-06-24T11:22:25;5.43;;;2.90;;
66970;SDS011;53901;51.466;-2.588;2023-06-24T11:24:52;6.00;;;3.03;;
66970;SDS011;53901;51.466;-2.588;2023-06-24T11:27:27;8.57;;;3.17;;
66970;SDS011;53901;51.466;-2.588;2023-06-24T11:29:54;4.72;;;3.20;;
66970;SDS011;53901;51.466;-2.588;2023-06-24T11:32:23;5.50;;;3.30;;
66970;SDS011;53901;51.466;-2.588;2023-06-24T11:34:48;5.72;;;3.08;;
66970;SDS011;53901;51.466;-2.588;2023-06-24T11:37:14;4.50;;;2.95;;
66970;SDS011;53901;51.466;-2.588;2023-06-24T11:39:45;5.30;;;2.70;;
66970;SDS011;53901;51.466;-2.588;2023-06-24T11:42:29;6.20;;;3.15;;
66970;SDS011;53901;51.466;-2.588;2023-06-24T11:45:01;6.63;;;2.97;;
66970;SDS011;53901;51.466;-2.588;2023-06-24T11:47:31;4.30;;;2.92;;
66970;SDS011;53901;51.466;-2.588;2023-06-24T11:49:58;7.05;;;3.00;;
66970;SDS011;53901;51.466;-2.588;2023-06-24T12:00:38;5.72;;;2.42;;
66970;SDS011;53901;51.466;-2.588;2023-06-24T12:03:11;3.10;;;2.20;;
66970;SDS011;53901;51.466;-2.588;2023-06-24T12:05:37;4.72;;;2.20;;
66970;SDS011;53901;51.466;-2.588;2023-06-24T12:08:05;3.95;;;2.20;;
66970;SDS011;53901;51.466;-2.588;2023-06-24T12:10:32;4.38;;;2.20;;
66970;SDS011;53901;51.466;-2.588;2023-06-24T12:12:59;5.90;;;2.30;;
66970;SDS011;53901;51.466;-2.588;2023-06-24T12:15:25;5.78;;;3.25;;
66970;SDS011;53901;51.466;-2.588;2023-06-24T12:17:51;6.40;;;2.28;;
66970;SDS011;53901;51.466;-2.588;2023-06-24T12:20:16;5.57;;;2.60;;
66970;SDS011;53901;51.466;-2.588;2023-06-24T12:22:42;3.60;;;2.35;;
66970;SDS011;53901;51.466;-2.588;2023-06-24T12:25:09;3.42;;;2.08;;
66970;SDS011;53901;51.466;-2.588;2023-06-24T12:27:34;5.88;;;2.30;;
66970;SDS011;53901;51.466;-2.588;2023-06-24T12:30:00;3.90;;;2.00;;
66970;SDS011;53901;51.466;-2.588;2023-06-24T12:32:26;3.35;;;1.95;;
66970;SDS011;53901;51.466;-2.588;2023-06-24T12:34:52;3.22;;;2.30;;
66970;SDS011;53901;51.466;-2.588;2023-06-24T12:37:17;5.75;;;1.75;;
66970;SDS011;53901;51.466;-2.588;2023-06-24T12:39:44;4.25;;;2.05;;
66970;SDS011;53901;51.466;-2.588;2023-06-24T12:42:09;2.90;;;1.88;;
66970;SDS011;53901;51.466;-2.588;2023-06-24T12:44:35;7.03;;;2.30;;
66970;SDS011;53901;51.466;-2.588;2023-06-24T12:47:00;2.47;;;1.85;;
66970;SDS011;53901;51.466;-2.588;2023-06-24T12:49:25;3.33;;;1.92;;
66970;SDS011;53901;51.466;-2.588;2023-06-24T12:51:51;5.57;;;2.30;;
66970;SDS011;53901;51.466;-2.588;2023-06-24T12:54:17;6.18;;;2.33;;
66970;SDS011;53901;51.466;-2.588;2023-06-24T12:56:43;4.03;;;2.53;;
66970;SDS011;53901;51.466;-2.588;2023-06-24T12:59:08;5.05;;;2.30;;
66970;SDS011;53901;51.466;-2.588;2023-06-24T13:01:34;4.07;;;2.15;;
66970;SDS011;53901;51.466;-2.588;2023-06-24T13:03:59;5.15;;;2.85;;
66970;SDS011;53901;51.466;-2.588;2023-06-24T13:06:24;3.15;;;2.30;;
66970;SDS011;53901;51.466;-2.588;2023-06-24T13:08:50;4.53;;;2.53;;
66970;SDS011;53901;51.466;-2.588;2023-06-24T13:11:15;7.35;;;2.90;;
66970;SDS011;53901;51.466;-2.588;2023-06-24T13:13:40;5.57;;;2.75;;
66970;SDS011;53901;51.466;-2.588;2023-06-24T13:16:06;5.43;;;2.60;;
66970;SDS011;53901;51.466;-2.588;2023-06-24T13:18:32;6.53;;;2.60;;
66970;SDS011;53901;51.466;-2.588;2023-06-24T13:20:57;4.80;;;2.45;;
66970;SDS011;53901;51.466;-2.588;2023-06-24T13:23:22;4.38;;;2.80;;
66970;SDS011;53901;51.466;-2.588;2023-06-24T13:25:48;3.85;;;1.92;;
66970;SDS011;53901;51.466;-2.588;2023-06-24T13:28:13;4.13;;;1.65;;
66970;SDS011;53901;51.466;-2.588;2023-06-24T13:30:39;2.72;;;1.50;;
66970;SDS011;53901;51.466;-2.588;2023-06-24T13:33:04;3.58;;;2.30;;
66970;SDS011;53901;51.466;-2.588;2023-06-24T13:35:29;6.80;;;2.40;;
66970;SDS011;53901;51.466;-2.588;2023-06-24T13:37:55;3.30;;;2.10;;
66970;SDS011;53901;51.466;-2.588;2023-06-24T13:40:20;3.83;;;2.22;;
66970;SDS011;53901;51.466;-2.588;2023-06-24T13:42:46;3.72;;;2.17;;
66970;SDS011;53901;51.466;-2.588;2023-06-24T13:45:11;4.20;;;2.20;;
66970;SDS011;53901;51.466;-2.588;2023-06-24T13:47:36;3.78;;;2.40;;
66970;SDS011;53901;51.466;-2.588;2023-06-24T13:50:02;4.55;;;2.35;;
66970;SDS011;53901;51.466;-2.588;2023-06-24T13:52:28;5.53;;;2.17;;
66970;SDS011;53901;51.466;-2.588;2023-06-24T13:54:54;3.72;;;1.90;;
66970;SDS011;53901;51.466;-2.588;2023-06-24T13:57:19;3.63;;;1.83;;
66970;SDS011;53901;51.466;-2.588;2023-06-24T13:59:45;4.32;;;2.58;;
66970;SDS011;53901;51.466;-2.588;2023-06-24T14:02:10;3.63;;;2.03;;
66970;SDS011;53901;51.466;-2.588;2023-06-24T14:04:36;4.45;;;2.28;;
66970;SDS011;53901;51.466;-2.588;2023-06-24T14:07:04;9.15;;;2.47;;
66970;SDS011;53901;51.466;-2.588;2023-06-24T14:09:30;5.05;;;2.20;;
66970;SDS011;53901;51.466;-2.588;2023-06-24T14:11:56;4.35;;;2.10;;
66970;SDS011;53901;51.466;-2.588;2023-06-24T14:14:21;4.07;;;2.20;;
66970;SDS011;53901;51.466;-2.588;2023-06-24T14:16:47;3.92;;;2.50;;
66970;SDS011;53901;51.466;-2.588;2023-06-24T14:19:12;4.38;;;2.45;;
66970;SDS011;53901;51.466;-2.588;2023-06-24T14:21:38;3.22;;;2.13;;
66970;SDS011;53901;51.466;-2.588;2023-06-24T14:24:04;4.07;;;1.60;;
66970;SDS011;53901;51.466;-2.588;2023-06-24T14:26:30;3.15;;;1.70;;
66970;SDS011;53901;51.466;-2.588;2023-06-24T14:28:55;4.57;;;1.70;;
66970;SDS011;53901;51.466;-2.588;2023-06-24T14:31:21;5.50;;;1.60;;
66970;SDS011;53901;51.466;-2.588;2023-06-24T14:33:46;3.28;;;2.05;;
66970;SDS011;53901;51.466;-2.588;2023-06-24T14:36:12;2.70;;;1.67;;
66970;SDS011;53901;51.466;-2.588;2023-06-24T14:38:37;3.05;;;1.60;;
66970;SDS011;53901;51.466;-2.588;2023-06-24T14:41:02;4.13;;;1.80;;
66970;SDS011;53901;51.466;-2.588;2023-06-24T14:43:28;2.70;;;1.58;;
66970;SDS011;53901;51.466;-2.588;2023-06-24T14:45:53;2.38;;;1.40;;
66970;SDS011;53901;51.466;-2.588;2023-06-24T14:48:19;3.72;;;1.50;;
66970;SDS011;53901;51.466;-2.588;2023-06-24T14:50:44;2.65;;;1.38;;
66970;SDS011;53901;51.466;-2.588;2023-06-24T14:53:09;3.95;;;1.50;;
66970;SDS011;53901;51.466;-2.588;2023-06-24T14:55:35;3.22;;;1.55;;
66970;SDS011;53901;51.466;-2.588;2023-06-24T14:58:00;2.67;;;1.50;;
66970;SDS011;53901;51.466;-2.588;2023-06-24T15:00:25;4.38;;;2.00;;